createdAt,value
2023-03-16T00:18:14.742Z,424
2023-03-16T00:38:14.411Z,424
2023-03-16T01:18:14.460Z,428
2023-03-16T01:38:14.503Z,425
2023-03-16T01:58:14.514Z,438
2023-03-16T02:38:14.556Z,427
2023-03-16T02:58:14.553Z,428
2023-03-16T03:38:14.571Z,430
2023-03-16T03:58:21.950Z,431
2023-03-16T04:18:14.571Z,426
2023-03-16T04:38:14.609Z,424
2023-03-16T05:18:14.643Z,430
2023-03-16T05:38:14.654Z,426
2023-03-16T05:58:14.809Z,426
2023-03-16T06:38:14.714Z,425
2023-03-16T07:18:14.768Z,420
2023-03-16T07:38:21.746Z,424
2023-03-16T07:58:14.749Z,418
2023-03-16T08:18:14.776Z,421
2023-03-16T08:38:14.813Z,414
2023-03-16T08:58:14.818Z,419
2023-03-16T09:18:19.683Z,415
2023-03-16T09:38:15.019Z,413
2023-03-16T09:58:14.821Z,413
2023-03-16T10:38:15.852Z,408
2023-03-16T11:18:15.133Z,410
2023-03-16T13:58:15.043Z,397
2023-03-16T17:18:14.810Z,391
2023-03-16T17:38:14.809Z,397
2023-03-16T17:58:16.533Z,396
2023-03-16T18:18:14.870Z,406
2023-03-16T18:58:14.824Z,403
2023-03-16T19:18:14.896Z,401
2023-03-16T19:38:14.930Z,404
2023-03-16T19:58:14.866Z,408
2023-03-16T20:18:14.900Z,404
2023-03-16T20:38:14.883Z,396
2023-03-16T20:58:19.726Z,404
2023-03-16T21:18:14.954Z,406
2023-03-16T21:38:14.905Z,398
2023-03-16T21:58:14.993Z,403
2023-03-16T22:18:14.923Z,403
2023-03-16T22:38:14.909Z,409
2023-03-16T22:58:15.080Z,402
2023-03-16T23:18:21.983Z,399
2023-03-16T23:38:14.966Z,401
2023-03-16T23:58:14.980Z,401
